sensor_id;sensor_type;location;lat;lon;timestamp;P1;durP1;ratioP1;P2;durP2;ratioP2
18592;SDS011;9426;54.118;17.948;2023-12-20T00:01:40;4.20;;;2.83;;
18592;SDS011;9426;54.118;17.948;2023-12-20T00:07:04;3.00;;;2.37;;
18592;SDS011;9426;54.118;17.948;2023-12-20T00:12:29;3.20;;;2.10;;
18592;SDS011;9426;54.118;17.948;2023-12-20T00:17:53;2.73;;;1.60;;
18592;SDS011;9426;54.118;17.948;2023-12-20T00:23:17;2.27;;;1.50;;
18592;SDS011;9426;54.118;17.948;2023-12-20T00:28:42;3.47;;;1.40;;
18592;SDS011;9426;54.118;17.948;2023-12-20T00:34:05;2.90;;;1.77;;
18592;SDS011;9426;54.118;17.948;2023-12-20T00:39:31;2.77;;;1.40;;
18592;SDS011;9426;54.118;17.948;2023-12-20T00:44:59;0.90;;;0.90;;
18592;SDS011;9426;54.118;17.948;2023-12-20T00:50:23;1.30;;;0.80;;
18592;SDS011;9426;54.118;17.948;2023-12-20T00:55:49;1.00;;;0.70;;
18592;SDS011;9426;54.118;17.948;2023-12-20T01:01:14;2.20;;;0.80;;
18592;SDS011;9426;54.118;17.948;2023-12-20T01:06:44;0.60;;;0.60;;
18592;SDS011;9426;54.118;17.948;2023-12-20T01:12:08;1.30;;;0.70;;
18592;SDS011;9426;54.118;17.948;2023-12-20T01:17:33;1.97;;;0.90;;
18592;SDS011;9426;54.118;17.948;2023-12-20T01:22:57;2.17;;;1.00;;
18592;SDS011;9426;54.118;17.948;2023-12-20T01:28:21;1.83;;;0.70;;
18592;SDS011;9426;54.118;17.948;2023-12-20T01:33:46;4.10;;;1.10;;
18592;SDS011;9426;54.118;17.948;2023-12-20T01:39:09;1.60;;;0.80;;
18592;SDS011;9426;54.118;17.948;2023-12-20T01:44:36;4.40;;;0.87;;
18592;SDS011;9426;54.118;17.948;2023-12-20T01:50:01;1.40;;;0.70;;
18592;SDS011;9426;54.118;17.948;2023-12-20T01:55:25;2.43;;;1.00;;
18592;SDS011;9426;54.118;17.948;2023-12-20T02:00:50;2.93;;;1.00;;
18592;SDS011;9426;54.118;17.948;2023-12-20T02:06:20;5.03;;;1.27;;
18592;SDS011;9426;54.118;17.948;2023-12-20T02:11:45;5.53;;;1.40;;
18592;SDS011;9426;54.118;17.948;2023-12-20T02:17:09;5.87;;;1.20;;
18592;SDS011;9426;54.118;17.948;2023-12-20T02:22:34;5.63;;;1.53;;
18592;SDS011;9426;54.118;17.948;2023-12-20T02:27:58;10.30;;;1.63;;
18592;SDS011;9426;54.118;17.948;2023-12-20T02:33:22;11.37;;;2.13;;
18592;SDS011;9426;54.118;17.948;2023-12-20T02:38:47;5.80;;;1.67;;
18592;SDS011;9426;54.118;17.948;2023-12-20T02:44:12;10.27;;;2.07;;
18592;SDS011;9426;54.118;17.948;2023-12-20T02:49:36;12.30;;;1.90;;
18592;SDS011;9426;54.118;17.948;2023-12-20T02:55:01;7.67;;;1.50;;
18592;SDS011;9426;54.118;17.948;2023-12-20T03:00:25;9.33;;;1.83;;
18592;SDS011;9426;54.118;17.948;2023-12-20T03:05:48;9.83;;;2.33;;
18592;SDS011;9426;54.118;17.948;2023-12-20T03:11:13;15.33;;;2.23;;
18592;SDS011;9426;54.118;17.948;2023-12-20T03:16:36;9.97;;;1.70;;
18592;SDS011;9426;54.118;17.948;2023-12-20T03:22:00;6.43;;;1.90;;
18592;SDS011;9426;54.118;17.948;2023-12-20T03:27:25;6.63;;;1.80;;
18592;SDS011;9426;54.118;17.948;2023-12-20T03:32:49;5.30;;;1.37;;
18592;SDS011;9426;54.118;17.948;2023-12-20T03:38:12;11.73;;;2.17;;
18592;SDS011;9426;54.118;17.948;2023-12-20T03:43:37;8.07;;;1.63;;
18592;SDS011;9426;54.118;17.948;2023-12-20T03:49:01;9.07;;;1.70;;
18592;SDS011;9426;54.118;17.948;2023-12-20T03:54:25;9.27;;;1.60;;
18592;SDS011;9426;54.118;17.948;2023-12-20T03:59:50;9.90;;;1.83;;
18592;SDS011;9426;54.118;17.948;2023-12-20T04:05:13;10.80;;;1.77;;
18592;SDS011;9426;54.118;17.948;2023-12-20T04:10:37;9.60;;;1.67;;
18592;SDS011;9426;54.118;17.948;2023-12-20T04:16:01;9.67;;;1.37;;
18592;SDS011;9426;54.118;17.948;2023-12-20T04:21:26;15.27;;;1.80;;
18592;SDS011;9426;54.118;17.948;2023-12-20T04:26:49;12.57;;;2.00;;
18592;SDS011;9426;54.118;17.948;2023-12-20T04:32:14;11.53;;;2.37;;
18592;SDS011;9426;54.118;17.948;2023-12-20T04:37:38;14.20;;;3.40;;
18592;SDS011;9426;54.118;17.948;2023-12-20T04:43:02;10.13;;;2.07;;
18592;SDS011;9426;54.118;17.948;2023-12-20T04:48:27;11.17;;;2.10;;
18592;SDS011;9426;54.118;17.948;2023-12-20T04:53:50;12.17;;;1.87;;
18592;SDS011;9426;54.118;17.948;2023-12-20T04:59:14;10.20;;;2.00;;
18592;SDS011;9426;54.118;17.948;2023-12-20T05:04:39;18.37;;;2.50;;
18592;SDS011;9426;54.118;17.948;2023-12-20T05:10:03;10.47;;;2.17;;
18592;SDS011;9426;54.118;17.948;2023-12-20T05:15:27;10.80;;;2.10;;
18592;SDS011;9426;54.118;17.948;2023-12-20T05:20:52;12.23;;;2.63;;
18592;SDS011;9426;54.118;17.948;2023-12-20T05:26:17;7.07;;;1.87;;
18592;SDS011;9426;54.118;17.948;2023-12-20T05:31:41;9.60;;;2.10;;
18592;SDS011;9426;54.118;17.948;2023-12-20T05:37:07;10.67;;;2.20;;
18592;SDS011;9426;54.118;17.948;2023-12-20T05:42:31;11.07;;;2.43;;
18592;SDS011;9426;54.118;17.948;2023-12-20T05:47:55;7.83;;;2.03;;
18592;SDS011;9426;54.118;17.948;2023-12-20T05:53:25;8.17;;;2.00;;
18592;SDS011;9426;54.118;17.948;2023-12-20T05:58:57;11.03;;;2.43;;
18592;SDS011;9426;54.118;17.948;2023-12-20T06:04:21;5.47;;;1.60;;
18592;SDS011;9426;54.118;17.948;2023-12-20T06:09:46;12.90;;;2.13;;
18592;SDS011;9426;54.118;17.948;2023-12-20T06:15:09;10.43;;;1.70;;
18592;SDS011;9426;54.118;17.948;2023-12-20T06:20:35;10.50;;;2.27;;
18592;SDS011;9426;54.118;17.948;2023-12-20T06:26:00;11.77;;;2.33;;
18592;SDS011;9426;54.118;17.948;2023-12-20T06:31:24;13.23;;;2.80;;
18592;SDS011;9426;54.118;17.948;2023-12-20T06:36:48;16.20;;;2.77;;
18592;SDS011;9426;54.118;17.948;2023-12-20T06:42:13;16.67;;;2.60;;
18592;SDS011;9426;54.118;17.948;2023-12-20T06:47:36;11.57;;;2.30;;
18592;SDS011;9426;54.118;17.948;2023-12-20T06:53:00;13.10;;;2.30;;
18592;SDS011;9426;54.118;17.948;2023-12-20T06:58:29;17.67;;;3.40;;
18592;SDS011;9426;54.118;17.948;2023-12-20T07:03:53;7.90;;;2.80;;
18592;SDS011;9426;54.118;17.948;2023-12-20T07:09:17;10.77;;;2.63;;
18592;SDS011;9426;54.118;17.948;2023-12-20T07:14:42;15.67;;;3.43;;
18592;SDS011;9426;54.118;17.948;2023-12-20T07:20:06;17.27;;;2.60;;
18592;SDS011;9426;54.118;17.948;2023-12-20T07:25:32;14.90;;;1.93;;
18592;SDS011;9426;54.118;17.948;2023-12-20T07:30:57;12.60;;;2.60;;
18592;SDS011;9426;54.118;17.948;2023-12-20T07:36:20;20.77;;;3.40;;
18592;SDS011;9426;54.118;17.948;2023-12-20T07:41:44;14.73;;;4.10;;
18592;SDS011;9426;54.118;17.948;2023-12-20T07:47:09;13.87;;;3.17;;
18592;SDS011;9426;54.118;17.948;2023-12-20T07:52:36;14.03;;;3.00;;
18592;SDS011;9426;54.118;17.948;2023-12-20T07:58:00;12.90;;;2.57;;
18592;SDS011;9426;54.118;17.948;2023-12-20T08:03:25;11.63;;;2.77;;
18592;SDS011;9426;54.118;17.948;2023-12-20T08:08:49;9.47;;;2.73;;
18592;SDS011;9426;54.118;17.948;2023-12-20T08:14:15;18.43;;;3.47;;
18592;SDS011;9426;54.118;17.948;2023-12-20T08:19:40;25.30;;;3.50;;
18592;SDS011;9426;54.118;17.948;2023-12-20T08:25:04;14.77;;;3.33;;
18592;SDS011;9426;54.118;17.948;2023-12-20T08:30:28;14.43;;;2.73;;
18592;SDS011;9426;54.118;17.948;2023-12-20T08:35:54;11.07;;;2.90;;
18592;SDS011;9426;54.118;17.948;2023-12-20T08:41:17;15.10;;;3.23;;
18592;SDS011;9426;54.118;17.948;2023-12-20T08:46:42;10.40;;;2.47;;
18592;SDS011;9426;54.118;17.948;2023-12-20T08:52:07;13.63;;;3.00;;
18592;SDS011;9426;54.118;17.948;2023-12-20T08:57:31;14.00;;;2.80;;
18592;SDS011;9426;54.118;17.948;2023-12-20T09:02:55;14.70;;;2.67;;
18592;SDS011;9426;54.118;17.948;2023-12-20T09:08:20;15.63;;;3.83;;
18592;SDS011;9426;54.118;17.948;2023-12-20T09:13:43;9.73;;;2.50;;
18592;SDS011;9426;54.118;17.948;2023-12-20T09:19:07;7.47;;;2.40;;
18592;SDS011;9426;54.118;17.948;2023-12-20T09:24:35;15.07;;;2.83;;
18592;SDS011;9426;54.118;17.948;2023-12-20T09:29:59;17.73;;;2.70;;
18592;SDS011;9426;54.118;17.948;2023-12-20T09:35:23;14.43;;;2.83;;
18592;SDS011;9426;54.118;17.948;2023-12-20T09:40:49;13.23;;;3.20;;
18592;SDS011;9426;54.118;17.948;2023-12-20T09:46:12;14.73;;;3.03;;
18592;SDS011;9426;54.118;17.948;2023-12-20T09:51:41;15.43;;;3.30;;
18592;SDS011;9426;54.118;17.948;2023-12-20T09:57:07;17.97;;;3.83;;
18592;SDS011;9426;54.118;17.948;2023-12-20T10:02:32;26.73;;;5.17;;
18592;SDS011;9426;54.118;17.948;2023-12-20T10:07:57;15.17;;;4.03;;
18592;SDS011;9426;54.118;17.948;2023-12-20T10:13:23;15.20;;;4.60;;
18592;SDS011;9426;54.118;17.948;2023-12-20T10:18:47;21.90;;;5.77;;
18592;SDS011;9426;54.118;17.948;2023-12-20T10:24:15;16.67;;;5.17;;
18592;SDS011;9426;54.118;17.948;2023-12-20T10:29:41;16.77;;;5.13;;
18592;SDS011;9426;54.118;17.948;2023-12-20T10:35:05;17.53;;;5.33;;
18592;SDS011;9426;54.118;17.948;2023-12-20T10:40:29;26.80;;;5.20;;
18592;SDS011;9426;54.118;17.948;2023-12-20T10:45:54;14.70;;;5.10;;
18592;SDS011;9426;54.118;17.948;2023-12-20T10:51:18;20.40;;;5.23;;
18592;SDS011;9426;54.118;17.948;2023-12-20T10:56:43;21.07;;;5.33;;
18592;SDS011;9426;54.118;17.948;2023-12-20T11:02:08;17.57;;;4.73;;
18592;SDS011;9426;54.118;17.948;2023-12-20T11:07:32;16.60;;;4.80;;
18592;SDS011;9426;54.118;17.948;2023-12-20T11:13:01;21.90;;;5.23;;
18592;SDS011;9426;54.118;17.948;2023-12-20T11:18:34;16.10;;;5.13;;
18592;SDS011;9426;54.118;17.948;2023-12-20T11:23:58;15.70;;;4.43;;
18592;SDS011;9426;54.118;17.948;2023-12-20T11:35:18;6.80;;;2.90;;
18592;SDS011;9426;54.118;17.948;2023-12-20T11:40:42;6.67;;;3.00;;
18592;SDS011;9426;54.118;17.948;2023-12-20T11:46:07;8.33;;;2.50;;
18592;SDS011;9426;54.118;17.948;2023-12-20T11:51:33;8.67;;;2.63;;
18592;SDS011;9426;54.118;17.948;2023-12-20T11:56:56;6.67;;;2.53;;
18592;SDS011;9426;54.118;17.948;2023-12-20T12:02:20;6.23;;;2.33;;
18592;SDS011;9426;54.118;17.948;2023-12-20T12:07:46;4.00;;;2.40;;
18592;SDS011;9426;54.118;17.948;2023-12-20T12:13:09;6.20;;;2.10;;
18592;SDS011;9426;54.118;17.948;2023-12-20T12:18:35;3.73;;;2.00;;
18592;SDS011;9426;54.118;17.948;2023-12-20T12:24:10;3.47;;;1.53;;
18592;SDS011;9426;54.118;17.948;2023-12-20T12:29:34;7.00;;;2.83;;
18592;SDS011;9426;54.118;17.948;2023-12-20T12:34:57;2.97;;;1.70;;
18592;SDS011;9426;54.118;17.948;2023-12-20T12:40:22;2.93;;;2.00;;
18592;SDS011;9426;54.118;17.948;2023-12-20T12:45:46;4.43;;;1.50;;
18592;SDS011;9426;54.118;17.948;2023-12-20T12:51:10;4.23;;;1.53;;
18592;SDS011;9426;54.118;17.948;2023-12-20T12:56:36;3.60;;;1.67;;
18592;SDS011;9426;54.118;17.948;2023-12-20T13:02:00;2.30;;;1.47;;
18592;SDS011;9426;54.118;17.948;2023-12-20T13:07:24;2.87;;;1.67;;
18592;SDS011;9426;54.118;17.948;2023-12-20T13:12:49;3.90;;;1.77;;
18592;SDS011;9426;54.118;17.948;2023-12-20T13:18:13;1.63;;;1.43;;
18592;SDS011;9426;54.118;17.948;2023-12-20T13:23:37;1.47;;;1.30;;
18592;SDS011;9426;54.118;17.948;2023-12-20T13:29:02;4.13;;;1.60;;
18592;SDS011;9426;54.118;17.948;2023-12-20T13:34:26;1.93;;;1.57;;
18592;SDS011;9426;54.118;17.948;2023-12-20T13:39:49;5.03;;;2.00;;
18592;SDS011;9426;54.118;17.948;2023-12-20T13:45:14;6.13;;;2.40;;
18592;SDS011;9426;54.118;17.948;2023-12-20T13:50:38;3.93;;;2.10;;
18592;SDS011;9426;54.118;17.948;2023-12-20T13:56:02;3.87;;;2.27;;
18592;SDS011;9426;54.118;17.948;2023-12-20T14:01:27;3.93;;;2.30;;
18592;SDS011;9426;54.118;17.948;2023-12-20T14:06:51;6.73;;;3.37;;
18592;SDS011;9426;54.118;17.948;2023-12-20T14:12:15;7.33;;;3.00;;
18592;SDS011;9426;54.118;17.948;2023-12-20T14:17:41;4.87;;;3.37;;
18592;SDS011;9426;54.118;17.948;2023-12-20T14:23:05;5.03;;;2.77;;
18592;SDS011;9426;54.118;17.948;2023-12-20T14:28:29;7.60;;;3.50;;
18592;SDS011;9426;54.118;17.948;2023-12-20T14:33:54;5.33;;;3.20;;
18592;SDS011;9426;54.118;17.948;2023-12-20T14:39:17;9.70;;;4.23;;
18592;SDS011;9426;54.118;17.948;2023-12-20T14:44:41;10.83;;;3.83;;
18592;SDS011;9426;54.118;17.948;2023-12-20T14:50:06;9.03;;;3.83;;
18592;SDS011;9426;54.118;17.948;2023-12-20T14:55:30;9.07;;;3.83;;
18592;SDS011;9426;54.118;17.948;2023-12-20T15:00:55;8.33;;;3.63;;
18592;SDS011;9426;54.118;17.948;2023-12-20T15:06:20;9.87;;;3.67;;
18592;SDS011;9426;54.118;17.948;2023-12-20T15:11:43;11.63;;;3.63;;
18592;SDS011;9426;54.118;17.948;2023-12-20T15:17:07;13.80;;;3.90;;
18592;SDS011;9426;54.118;17.948;2023-12-20T15:22:32;9.37;;;3.83;;
18592;SDS011;9426;54.118;17.948;2023-12-20T15:27:56;10.03;;;3.73;;
18592;SDS011;9426;54.118;17.948;2023-12-20T15:33:20;6.00;;;2.80;;
18592;SDS011;9426;54.118;17.948;2023-12-20T15:38:45;4.77;;;2.93;;
18592;SDS011;9426;54.118;17.948;2023-12-20T15:44:08;2.27;;;1.80;;
18592;SDS011;9426;54.118;17.948;2023-12-20T15:49:32;4.03;;;1.70;;
18592;SDS011;9426;54.118;17.948;2023-12-20T15:54:57;5.07;;;2.03;;
18592;SDS011;9426;54.118;17.948;2023-12-20T16:00:21;2.27;;;1.20;;
18592;SDS011;9426;54.118;17.948;2023-12-20T16:05:45;3.63;;;1.50;;
18592;SDS011;9426;54.118;17.948;2023-12-20T16:11:10;2.43;;;1.20;;
18592;SDS011;9426;54.118;17.948;2023-12-20T16:16:33;3.03;;;1.57;;
18592;SDS011;9426;54.118;17.948;2023-12-20T16:21:57;3.97;;;1.40;;
18592;SDS011;9426;54.118;17.948;2023-12-20T16:27:23;3.33;;;1.50;;
18592;SDS011;9426;54.118;17.948;2023-12-20T16:32:46;4.47;;;2.10;;
18592;SDS011;9426;54.118;17.948;2023-12-20T16:38:11;2.90;;;1.67;;
18592;SDS011;9426;54.118;17.948;2023-12-20T16:43:36;5.37;;;2.10;;
18592;SDS011;9426;54.118;17.948;2023-12-20T16:49:00;5.57;;;1.80;;
18592;SDS011;9426;54.118;17.948;2023-12-20T16:54:24;6.47;;;2.23;;
18592;SDS011;9426;54.118;17.948;2023-12-20T16:59:48;9.23;;;2.03;;
18592;SDS011;9426;54.118;17.948;2023-12-20T17:05:12;9.00;;;2.37;;
18592;SDS011;9426;54.118;17.948;2023-12-20T17:10:36;7.23;;;2.37;;
18592;SDS011;9426;54.118;17.948;2023-12-20T17:16:01;9.93;;;2.00;;
18592;SDS011;9426;54.118;17.948;2023-12-20T17:21:25;9.53;;;2.10;;
18592;SDS011;9426;54.118;17.948;2023-12-20T17:26:49;4.93;;;1.57;;
18592;SDS011;9426;54.118;17.948;2023-12-20T17:32:14;11.60;;;2.50;;
18592;SDS011;9426;54.118;17.948;2023-12-20T17:37:37;7.73;;;2.00;;
18592;SDS011;9426;54.118;17.948;2023-12-20T17:43:01;10.07;;;2.30;;
18592;SDS011;9426;54.118;17.948;2023-12-20T17:48:26;12.17;;;2.30;;
18592;SDS011;9426;54.118;17.948;2023-12-20T17:53:50;11.13;;;2.20;;
18592;SDS011;9426;54.118;17.948;2023-12-20T17:59:13;7.87;;;1.73;;
18592;SDS011;9426;54.118;17.948;2023-12-20T18:04:38;8.53;;;2.33;;
18592;SDS011;9426;54.118;17.948;2023-12-20T18:10:03;6.87;;;1.70;;
18592;SDS011;9426;54.118;17.948;2023-12-20T18:15:28;7.80;;;2.30;;
18592;SDS011;9426;54.118;17.948;2023-12-20T18:20:54;6.03;;;2.30;;
18592;SDS011;9426;54.118;17.948;2023-12-20T18:26:19;9.43;;;2.73;;
18592;SDS011;9426;54.118;17.948;2023-12-20T18:31:43;7.67;;;2.30;;
18592;SDS011;9426;54.118;17.948;2023-12-20T18:37:09;9.77;;;2.70;;
18592;SDS011;9426;54.118;17.948;2023-12-20T18:42:33;5.20;;;2.40;;
18592;SDS011;9426;54.118;17.948;2023-12-20T18:47:57;11.73;;;3.07;;
18592;SDS011;9426;54.118;17.948;2023-12-20T18:53:23;5.90;;;2.00;;
18592;SDS011;9426;54.118;17.948;2023-12-20T18:58:47;4.90;;;2.10;;
18592;SDS011;9426;54.118;17.948;2023-12-20T19:04:11;5.20;;;1.90;;
18592;SDS011;9426;54.118;17.948;2023-12-20T19:09:36;4.17;;;1.60;;
18592;SDS011;9426;54.118;17.948;2023-12-20T19:15:01;2.83;;;1.73;;
18592;SDS011;9426;54.118;17.948;2023-12-20T19:36:02;4.57;;;2.10;;
18592;SDS011;9426;54.118;17.948;2023-12-20T19:41:27;7.93;;;3.17;;
18592;SDS011;9426;54.118;17.948;2023-12-20T19:46:53;9.30;;;3.67;;
18592;SDS011;9426;54.118;17.948;2023-12-20T20:08:24;11.30;;;4.37;;
18592;SDS011;9426;54.118;17.948;2023-12-20T20:13:50;11.47;;;4.13;;
18592;SDS011;9426;54.118;17.948;2023-12-20T20:48:29;5.27;;;2.80;;
18592;SDS011;9426;54.118;17.948;2023-12-20T20:54:34;7.20;;;2.43;;
18592;SDS011;9426;54.118;17.948;2023-12-20T21:01:11;10.47;;;3.07;;
18592;SDS011;9426;54.118;17.948;2023-12-20T21:07:51;10.03;;;3.20;;
18592;SDS011;9426;54.118;17.948;2023-12-20T21:14:17;8.73;;;3.60;;
18592;SDS011;9426;54.118;17.948;2023-12-20T21:20:38;19.27;;;4.67;;
18592;SDS011;9426;54.118;17.948;2023-12-20T21:27:02;16.97;;;4.70;;
18592;SDS011;9426;54.118;17.948;2023-12-20T21:33:25;19.13;;;5.03;;
18592;SDS011;9426;54.118;17.948;2023-12-20T21:38:53;23.80;;;5.63;;
18592;SDS011;9426;54.118;17.948;2023-12-20T21:44:20;19.60;;;6.73;;
18592;SDS011;9426;54.118;17.948;2023-12-20T21:56:04;22.73;;;6.83;;
18592;SDS011;9426;54.118;17.948;2023-12-20T22:07:20;32.80;;;8.00;;
18592;SDS011;9426;54.118;17.948;2023-12-20T22:12:44;17.50;;;5.97;;
18592;SDS011;9426;54.118;17.948;2023-12-20T22:18:09;21.10;;;6.53;;
18592;SDS011;9426;54.118;17.948;2023-12-20T22:23:32;30.77;;;6.73;;
18592;SDS011;9426;54.118;17.948;2023-12-20T22:28:56;33.50;;;6.73;;
18592;SDS011;9426;54.118;17.948;2023-12-20T22:34:21;23.93;;;6.60;;
18592;SDS011;9426;54.118;17.948;2023-12-20T22:39:44;23.00;;;6.50;;
18592;SDS011;9426;54.118;17.948;2023-12-20T22:45:09;24.87;;;6.70;;
18592;SDS011;9426;54.118;17.948;2023-12-20T22:50:34;25.90;;;6.77;;
18592;SDS011;9426;54.118;17.948;2023-12-20T22:55:58;25.27;;;6.47;;
18592;SDS011;9426;54.118;17.948;2023-12-20T23:01:21;25.07;;;6.23;;
18592;SDS011;9426;54.118;17.948;2023-12-20T23:06:46;25.83;;;5.73;;
18592;SDS011;9426;54.118;17.948;2023-12-20T23:12:10;28.53;;;6.90;;
18592;SDS011;9426;54.118;17.948;2023-12-20T23:17:33;19.80;;;5.30;;
18592;SDS011;9426;54.118;17.948;2023-12-20T23:22:58;27.47;;;6.37;;
18592;SDS011;9426;54.118;17.948;2023-12-20T23:28:22;22.03;;;5.47;;
18592;SDS011;9426;54.118;17.948;2023-12-20T23:33:45;30.80;;;5.93;;
18592;SDS011;9426;54.118;17.948;2023-12-20T23:39:10;19.10;;;5.10;;
18592;SDS011;9426;54.118;17.948;2023-12-20T23:44:35;32.30;;;5.93;;
18592;SDS011;9426;54.118;17.948;2023-12-20T23:49:58;19.67;;;5.47;;
18592;SDS011;9426;54.118;17.948;2023-12-20T23:55:23;29.93;;;5.67;;
